createdAt,value
2022-10-17T00:00:19.469Z,99475.16
2022-10-17T00:01:23.507Z,99473.56
2022-10-17T00:02:26.455Z,99480.72
2022-10-17T00:03:30.538Z,99483.41
2022-10-17T00:05:41.508Z,99483.41
2022-10-17T00:06:45.005Z,99480.91
2022-10-17T00:07:49.109Z,99479.22
2022-10-17T00:08:53.167Z,99485.25
2022-10-17T00:09:57.308Z,99488.69
2022-10-17T00:11:01.657Z,99482.75
2022-10-17T00:12:06.017Z,99487.13
2022-10-17T00:13:10.556Z,99482.94
2022-10-17T00:14:14.516Z,99489.06
2022-10-17T00:15:18.676Z,99488.22
2022-10-17T00:16:26.684Z,99482.94
2022-10-17T00:17:31.215Z,99488.13
2022-10-17T00:18:35.339Z,99488.13
2022-10-17T00:19:38.568Z,99487.28
2022-10-17T00:20:42.570Z,99488.22
2022-10-17T00:21:45.466Z,99484.78
2022-10-17T00:22:49.421Z,99485.69
2022-10-17T00:23:52.835Z,99482.25
2022-10-17T00:24:57.125Z,99485.78
2022-10-17T00:26:02.009Z,99484.97
2022-10-17T00:27:06.197Z,99487.47
2022-10-17T00:28:11.185Z,99485.69
2022-10-17T00:29:15.221Z,99501.22
2022-10-17T00:30:18.356Z,99489.06
2022-10-17T00:31:24.217Z,99490.81
2022-10-17T00:32:27.383Z,99491.75
2022-10-17T00:33:32.238Z,99488.28
2022-10-17T00:34:35.328Z,99494.34
2022-10-17T00:35:39.348Z,99486.56
2022-10-17T00:36:42.276Z,99496.94
2022-10-17T00:37:46.258Z,99491.75
2022-10-17T00:38:51.029Z,99497.03
2022-10-17T00:39:55.526Z,99500.56
2022-10-17T00:40:58.997Z,99504.91
2022-10-17T00:42:02.998Z,99504.19
2022-10-17T00:43:07.266Z,99506.78
2022-10-17T00:44:47.701Z,99505.91
2022-10-17T00:45:53.145Z,99502.75
2022-10-17T00:46:56.637Z,99503.69
2022-10-17T00:48:02.630Z,99505.44
2022-10-17T00:49:07.528Z,99503.78
2022-10-17T00:50:11.829Z,99508.22
2022-10-17T00:51:15.366Z,99503.03
2022-10-17T00:52:22.991Z,99502.09
2022-10-17T00:53:25.960Z,99501.28
2022-10-17T00:54:33.638Z,99494.31
2022-10-17T00:55:39.113Z,99494.38
2022-10-17T00:56:44.068Z,99496.16
2022-10-17T00:57:47.129Z,99493.56
2022-10-17T00:58:51.249Z,99496.16
2022-10-17T00:59:56.972Z,99493.56
2022-10-17T01:01:03.516Z,99497.06
2022-10-17T01:02:09.337Z,99509.13
2022-10-17T01:03:13.328Z,99500.34
2022-10-17T01:04:16.440Z,99499.25
2022-10-17T01:05:21.190Z,99496.44
2022-10-17T01:06:24.168Z,99498.88
2022-10-17T01:07:33.118Z,99497.84
2022-10-17T01:08:39.580Z,99499.63
2022-10-17T01:09:45.049Z,99500.56
2022-10-17T01:10:55.710Z,99493.69
2022-10-17T01:12:06.279Z,99498.06
2022-10-17T01:13:14.450Z,99498.97
2022-10-17T01:14:24.675Z,99496.44
2022-10-17T01:15:37.658Z,99495.63
2022-10-17T01:16:49.146Z,99495.63
2022-10-17T01:18:01.956Z,99498.22
2022-10-17T01:20:59.915Z,99494.88
2022-10-17T01:22:07.668Z,99489.84
2022-10-17T01:23:23.640Z,99495.25
2022-10-17T01:24:49.411Z,99496.34
2022-10-17T01:25:56.783Z,99500.78
2022-10-17T01:27:33.849Z,99499.94
2022-10-17T01:29:03.047Z,99502.63
2022-10-17T01:30:35.537Z,99496.75
2022-10-17T01:31:44.357Z,99496.13
2022-10-17T01:32:50.776Z,99494.44
2022-10-17T01:34:01.205Z,99492.75
2022-10-17T01:35:09.979Z,99496.28
2022-10-17T01:36:19.167Z,99498.97
2022-10-17T01:37:28.768Z,99494.63
2022-10-17T01:38:36.283Z,99499.81
2022-10-17T01:39:45.473Z,99498.16
2022-10-17T01:40:55.479Z,99495.47
2022-10-17T01:42:02.594Z,99491.09
2022-10-17T01:43:10.467Z,99489.44
2022-10-17T01:44:16.062Z,99494.53
2022-10-17T01:45:24.318Z,99494.53
2022-10-17T01:46:30.368Z,99490.16
2022-10-17T01:47:36.387Z,99492.75
2022-10-17T01:48:43.428Z,99495.34
2022-10-17T01:49:48.360Z,99489.34
2022-10-17T01:50:54.267Z,99494.63
2022-10-17T01:52:01.818Z,99490.44
2022-10-17T01:53:09.330Z,99493.13
2022-10-17T01:54:18.286Z,99498.31
2022-10-17T01:55:26.200Z,99501.00
2022-10-17T01:56:34.496Z,99506.25
2022-10-17T01:57:41.458Z,99508.03
2022-10-17T01:58:49.056Z,99498.56
2022-10-17T01:59:52.898Z,99506.34
2022-10-17T02:01:01.595Z,99498.75
2022-10-17T02:02:08.126Z,99501.63
2022-10-17T02:03:15.956Z,99501.78
2022-10-17T02:04:20.099Z,99509.56
2022-10-17T02:05:26.608Z,99506.22
2022-10-17T02:06:29.635Z,99501.94
2022-10-17T02:07:34.567Z,99508.88
2022-10-17T02:08:42.438Z,99505.56
2022-10-17T02:09:46.607Z,99513.44
2022-10-17T02:10:53.900Z,99512.75
2022-10-17T02:12:11.531Z,99515.44
2022-10-17T02:13:22.256Z,99513.84
2022-10-17T02:14:33.698Z,99508.66
2022-10-17T02:16:01.403Z,99512.19
2022-10-17T02:17:10.868Z,99504.41
2022-10-17T02:18:29.779Z,99512.28
2022-10-17T02:19:45.518Z,99511.34
2022-10-17T02:20:54.277Z,99514.03
2022-10-17T02:22:05.718Z,99510.59
2022-10-17T02:23:13.150Z,99516.69
2022-10-17T02:24:21.573Z,99513.34
2022-10-17T02:25:34.228Z,99510.91
2022-10-17T02:26:42.130Z,99509.25
2022-10-17T02:27:52.078Z,99515.28
2022-10-17T02:29:03.210Z,99514.44
2022-10-17T02:30:11.892Z,99510.84
2022-10-17T02:31:17.390Z,99514.09
2022-10-17T02:32:26.633Z,99515.94
2022-10-17T02:33:34.456Z,99511.00
2022-10-17T02:34:40.759Z,99512.03
2022-10-17T02:35:47.807Z,99512.94
2022-10-17T02:36:54.166Z,99515.63
2022-10-17T02:37:58.959Z,99508.66
2022-10-17T02:39:03.961Z,99518.31
2022-10-17T02:40:08.017Z,99514.09
2022-10-17T02:41:19.025Z,99516.78
2022-10-17T02:42:23.737Z,99508.28
2022-10-17T02:43:27.897Z,99508.31
2022-10-17T02:44:31.445Z,99513.59
2022-10-17T02:45:37.336Z,99507.75
2022-10-17T02:46:42.217Z,99512.09
2022-10-17T02:47:52.960Z,99509.69
2022-10-17T02:49:01.606Z,99507.16
2022-10-17T02:50:06.678Z,99507.09
2022-10-17T02:51:12.877Z,99507.16
2022-10-17T02:52:20.763Z,99499.38
2022-10-17T02:53:30.277Z,99496.78
2022-10-17T02:54:40.399Z,99493.28
2022-10-17T02:55:48.900Z,99498.53
2022-10-17T02:56:57.233Z,99496.78
2022-10-17T02:58:03.394Z,99508.06
2022-10-17T02:59:09.524Z,99505.56
2022-10-17T03:00:14.532Z,99511.50
2022-10-17T03:01:19.079Z,99508.91
2022-10-17T03:02:22.678Z,99517.63
2022-10-17T03:03:28.343Z,99513.34
2022-10-17T03:04:37.379Z,99512.53
2022-10-17T03:05:41.306Z,99515.19
2022-10-17T03:06:46.198Z,99513.50
2022-10-17T03:07:51.120Z,99515.34
2022-10-17T03:08:54.096Z,99514.59
2022-10-17T03:09:58.059Z,99520.69
2022-10-17T03:11:01.264Z,99521.63
2022-10-17T03:12:05.965Z,99515.69
2022-10-17T03:13:10.397Z,99525.28
2022-10-17T03:14:17.270Z,99523.72
2022-10-17T03:15:20.262Z,99523.78
2022-10-17T03:16:24.249Z,99529.06
2022-10-17T03:17:28.294Z,99523.94
2022-10-17T03:18:31.262Z,99523.13
2022-10-17T03:19:39.218Z,99523.13
2022-10-17T03:20:42.389Z,99516.19
2022-10-17T03:21:46.348Z,99520.34
2022-10-17T03:22:49.328Z,99534.16
2022-10-17T03:23:53.416Z,99529.81
2022-10-17T03:24:58.378Z,99525.47
2022-10-17T03:26:05.508Z,99521.97
2022-10-17T03:38:25.228Z,99541.06
2022-10-17T03:39:29.700Z,99538.88
2022-10-17T03:40:32.641Z,99537.53
2022-10-17T03:41:36.800Z,99544.84
2022-10-17T03:42:39.787Z,99553.78
2022-10-17T03:43:43.861Z,99559.97
2022-10-17T03:44:46.829Z,99555.03
2022-10-17T03:45:50.781Z,99548.25
2022-10-17T03:46:53.690Z,99546.59
2022-10-17T03:47:57.746Z,99548.25
2022-10-17T03:49:01.359Z,99543.16
2022-10-17T03:50:06.510Z,99548.41
2022-10-17T03:51:12.499Z,99548.41
2022-10-17T03:52:21.850Z,99552.09
2022-10-17T03:53:26.707Z,99550.41
2022-10-17T03:54:31.360Z,99548.00
2022-10-17T03:55:34.318Z,99543.88
2022-10-17T03:56:38.819Z,99552.84
2022-10-17T03:57:46.190Z,99552.97
2022-10-17T03:58:51.955Z,99549.66
2022-10-17T03:59:54.868Z,99559.19
2022-10-17T04:00:59.209Z,99555.91
2022-10-17T04:02:02.248Z,99563.78
2022-10-17T04:03:06.230Z,99565.59
2022-10-17T04:04:09.558Z,99567.34
2022-10-17T04:05:14.407Z,99567.44
2022-10-17T04:06:17.491Z,99566.50
2022-10-17T04:07:21.551Z,99570.03
2022-10-17T04:08:26.920Z,99569.28
2022-10-17T04:09:42.438Z,99562.53
2022-10-17T04:10:49.261Z,99558.28
2022-10-17T04:11:53.328Z,99564.34
2022-10-17T04:12:57.686Z,99561.75
2022-10-17T04:14:01.790Z,99566.94
2022-10-17T04:15:07.251Z,99567.03
2022-10-17T04:16:16.718Z,99564.53
2022-10-17T04:17:29.186Z,99560.34
2022-10-17T04:18:32.328Z,99557.81
2022-10-17T04:19:36.404Z,99562.91
2022-10-17T04:20:39.275Z,99565.59
2022-10-17T04:21:43.488Z,99557.09
2022-10-17T04:22:46.500Z,99569.25
2022-10-17T04:23:54.736Z,99560.75
2022-10-17T04:25:10.307Z,99563.47
2022-10-17T04:26:17.302Z,99570.31
2022-10-17T04:27:20.301Z,99565.97
2022-10-17T04:28:25.191Z,99565.09
2022-10-17T04:29:28.633Z,99563.25
2022-10-17T04:30:43.672Z,99569.25
2022-10-17T04:31:50.028Z,99566.66
2022-10-17T04:32:58.557Z,99569.25
2022-10-17T04:34:03.488Z,99571.03
2022-10-17T04:35:08.249Z,99569.34
2022-10-17T04:36:13.081Z,99571.03
2022-10-17T04:37:17.815Z,99576.94
2022-10-17T04:38:27.607Z,99571.75
2022-10-17T04:39:34.131Z,99578.72
2022-10-17T04:40:37.303Z,99571.94
2022-10-17T04:41:41.911Z,99572.91
2022-10-17T04:42:45.407Z,99567.00
2022-10-17T04:43:52.510Z,99575.75
2022-10-17T04:44:56.867Z,99570.81
2022-10-17T04:46:04.819Z,99576.13
2022-10-17T04:47:10.168Z,99572.03
2022-10-17T04:48:14.700Z,99571.34
2022-10-17T04:49:19.648Z,99573.16
2022-10-17T04:50:25.288Z,99569.75
2022-10-17T04:51:49.210Z,99570.66
2022-10-17T04:53:01.853Z,99564.47
2022-10-17T04:54:06.017Z,99563.59
2022-10-17T04:55:11.440Z,99574.63
2022-10-17T04:56:17.333Z,99570.22
2022-10-17T04:57:20.810Z,99565.78
2022-10-17T04:58:42.042Z,99568.28
2022-10-17T04:59:46.908Z,99568.28
2022-10-17T05:00:57.183Z,99567.38
2022-10-17T05:02:06.108Z,99572.53
2022-10-17T05:03:10.380Z,99564.78
2022-10-17T05:04:14.360Z,99569.13
2022-10-17T05:05:17.309Z,99570.03
2022-10-17T05:06:25.509Z,99564.03
2022-10-17T05:07:46.368Z,99564.25
2022-10-17T05:08:55.147Z,99565.16
2022-10-17T05:09:58.977Z,99566.94
2022-10-17T05:11:05.999Z,99572.03
2022-10-17T05:12:10.402Z,99562.66
2022-10-17T05:13:17.736Z,99574.78
2022-10-17T05:14:20.899Z,99573.94
2022-10-17T05:15:25.549Z,99574.78
2022-10-17T05:16:32.240Z,99575.53
2022-10-17T05:17:35.216Z,99583.16
2022-10-17T05:18:39.380Z,99581.31
2022-10-17T05:19:42.289Z,99576.88
2022-10-17T05:20:46.470Z,99578.50
2022-10-17T05:21:49.490Z,99577.59
2022-10-17T05:22:53.470Z,99577.50
2022-10-17T05:23:57.387Z,99581.69
2022-10-17T05:25:01.643Z,99577.34
2022-10-17T05:26:06.333Z,99585.03
2022-10-17T05:27:10.320Z,99584.22
2022-10-17T05:28:13.407Z,99582.41
2022-10-17T05:29:19.572Z,99586.56
2022-10-17T05:30:27.789Z,99589.06
2022-10-17T05:31:45.117Z,99592.34
2022-10-17T05:32:48.798Z,99597.41
2022-10-17T05:33:52.770Z,99593.72
2022-10-17T05:34:55.807Z,99596.88
2022-10-17T05:36:02.076Z,99598.31
2022-10-17T05:37:04.997Z,99602.09
2022-10-17T05:38:09.876Z,99600.72
2022-10-17T05:39:15.090Z,99599.22
2022-10-17T05:40:19.590Z,99594.13
2022-10-17T05:41:24.054Z,99594.97
2022-10-17T05:42:28.641Z,99591.44
2022-10-17T05:43:34.877Z,99594.97
2022-10-17T05:44:39.507Z,99593.19
2022-10-17T05:45:44.654Z,99600.09
2022-10-17T05:46:53.797Z,99605.47
2022-10-17T05:47:58.940Z,99602.03
2022-10-17T05:49:05.299Z,99611.75
2022-10-17T05:50:11.850Z,99600.78
2022-10-17T05:51:36.113Z,99611.44
2022-10-17T05:52:42.931Z,99602.16
2022-10-17T05:53:52.608Z,99603.84
2022-10-17T05:55:00.161Z,99600.94
2022-10-17T05:56:06.702Z,99607.72
2022-10-17T05:57:11.200Z,99602.34
2022-10-17T05:58:21.969Z,99605.75
2022-10-17T05:59:29.062Z,99603.00
2022-10-17T06:00:38.951Z,99607.53
2022-10-17T06:01:42.026Z,99612.06
2022-10-17T06:02:47.224Z,99609.41
2022-10-17T06:03:51.759Z,99611.00
2022-10-17T06:04:55.806Z,99605.06
2022-10-17T06:06:05.339Z,99621.47
2022-10-17T06:07:08.282Z,99621.69
2022-10-17T06:08:12.421Z,99615.13
2022-10-17T06:09:19.016Z,99621.09
2022-10-17T06:10:26.320Z,99615.88
2022-10-17T06:11:30.218Z,99614.84
2022-10-17T06:12:35.700Z,99623.59
2022-10-17T06:13:38.848Z,99616.69
2022-10-17T06:14:49.007Z,99616.88
2022-10-17T06:15:52.103Z,99615.28
2022-10-17T06:16:56.104Z,99622.47
2022-10-17T06:17:58.955Z,99624.53
2022-10-17T06:19:03.117Z,99628.25
2022-10-17T06:20:07.267Z,99627.59
2022-10-17T06:21:13.270Z,99630.41
2022-10-17T06:22:20.641Z,99623.66
2022-10-17T06:23:24.687Z,99631.78
2022-10-17T06:24:40.941Z,99636.47
2022-10-17T06:25:44.138Z,99637.53
2022-10-17T06:26:50.066Z,99641.06
2022-10-17T06:27:57.208Z,99632.28
2022-10-17T06:29:00.250Z,99641.28
2022-10-17T06:30:09.879Z,99645.69
2022-10-17T06:31:14.684Z,99645.09
2022-10-17T06:32:18.807Z,99648.22
2022-10-17T06:33:23.643Z,99652.75
2022-10-17T06:34:27.820Z,99654.53
2022-10-17T06:35:30.810Z,99645.03
2022-10-17T06:36:35.059Z,99648.47
2022-10-17T06:37:38.215Z,99648.59
2022-10-17T06:38:45.641Z,99645.03
2022-10-17T06:39:57.521Z,99644.06
2022-10-17T06:41:08.708Z,99646.28
2022-10-17T06:42:11.719Z,99642.69
2022-10-17T06:43:36.018Z,99644.38
2022-10-17T06:44:59.931Z,99648.38
2022-10-17T06:46:19.491Z,99651.78
2022-10-17T06:47:51.859Z,99645.50
2022-10-17T06:49:25.323Z,99645.50
2022-10-17T06:50:35.690Z,99647.31
2022-10-17T06:51:48.058Z,99653.75
2022-10-17T06:52:55.205Z,99648.81
2022-10-17T06:54:22.460Z,99649.41
2022-10-17T06:55:45.539Z,99655.19
2022-10-17T06:56:58.552Z,99654.00
2022-10-17T06:58:17.429Z,99655.84
2022-10-17T06:59:35.059Z,99653.97
2022-10-17T07:00:46.181Z,99662.47
2022-10-17T07:01:50.338Z,99663.50
2022-10-17T07:02:53.531Z,99666.06
2022-10-17T07:03:58.208Z,99666.66
2022-10-17T07:05:01.289Z,99658.66
2022-10-17T07:06:06.040Z,99659.66
2022-10-17T07:07:20.123Z,99650.41
2022-10-17T07:08:23.198Z,99657.06
2022-10-17T07:09:27.968Z,99660.38
2022-10-17T07:10:38.441Z,99662.88
2022-10-17T07:11:44.318Z,99663.72
2022-10-17T07:12:47.310Z,99665.38
2022-10-17T07:13:51.258Z,99676.88
2022-10-17T07:14:56.669Z,99674.50
2022-10-17T07:16:01.962Z,99670.34
2022-10-17T07:17:08.389Z,99674.22
2022-10-17T07:18:11.585Z,99668.38
2022-10-17T07:19:16.291Z,99673.91
2022-10-17T07:20:19.217Z,99671.81
2022-10-17T07:21:23.327Z,99679.84
2022-10-17T07:22:26.407Z,99681.88
2022-10-17T07:23:36.767Z,99674.41
2022-10-17T07:24:40.906Z,99672.88
2022-10-17T07:25:51.972Z,99694.16
2022-10-17T07:26:56.320Z,99685.59
2022-10-17T07:27:59.397Z,99681.16
2022-10-17T07:29:03.577Z,99678.53
2022-10-17T07:30:22.262Z,99678.53
2022-10-17T07:31:52.367Z,99684.03
2022-10-17T07:32:55.567Z,99677.13
2022-10-17T07:34:01.241Z,99687.66
2022-10-17T07:35:06.270Z,99682.28
2022-10-17T07:36:09.586Z,99682.13
2022-10-17T07:37:14.049Z,99691.69
2022-10-17T07:38:24.002Z,99685.59
2022-10-17T07:39:27.027Z,99685.72
2022-10-17T07:40:31.171Z,99690.03
2022-10-17T07:41:34.138Z,99691.81
2022-10-17T07:43:43.590Z,99693.34
2022-10-17T07:44:48.139Z,99692.13
2022-10-17T07:45:54.132Z,99690.06
2022-10-17T07:46:59.296Z,99686.06
2022-10-17T07:48:02.550Z,99689.97
2022-10-17T07:49:07.793Z,99687.91
2022-10-17T07:50:11.149Z,99697.16
2022-10-17T07:51:15.404Z,99694.97
2022-10-17T07:52:19.470Z,99694.56
2022-10-17T07:53:22.642Z,99697.63
2022-10-17T07:54:26.943Z,99699.72
2022-10-17T07:55:30.320Z,99701.13
2022-10-17T07:56:36.237Z,99697.09
2022-10-17T07:57:40.489Z,99701.97
2022-10-17T07:58:44.692Z,99694.63
2022-10-17T07:59:48.297Z,99693.41
2022-10-17T08:00:53.802Z,99693.13
2022-10-17T08:01:58.059Z,99698.94
2022-10-17T08:03:00.969Z,99699.50
2022-10-17T08:04:04.896Z,99697.41
2022-10-17T08:05:08.792Z,99697.97
2022-10-17T08:06:22.368Z,99696.63
2022-10-17T08:07:33.647Z,99695.97
2022-10-17T08:08:37.397Z,99699.94
2022-10-17T08:09:41.348Z,99697.06
2022-10-17T08:10:44.338Z,99697.63
2022-10-17T08:11:49.269Z,99702.59
2022-10-17T08:12:52.141Z,99701.50
2022-10-17T08:13:56.195Z,99703.00
2022-10-17T08:14:59.080Z,99706.34
2022-10-17T08:16:05.759Z,99707.84
2022-10-17T08:17:08.782Z,99699.81
2022-10-17T08:18:13.994Z,99710.91
2022-10-17T08:19:16.869Z,99704.53
2022-10-17T08:20:20.940Z,99713.78
2022-10-17T08:21:24.916Z,99706.19
2022-10-17T08:22:29.149Z,99703.13
2022-10-17T08:23:33.384Z,99702.69
2022-10-17T08:24:37.421Z,99701.31
2022-10-17T08:25:40.416Z,99705.19
2022-10-17T08:26:46.181Z,99698.63
2022-10-17T08:27:51.509Z,99698.06
2022-10-17T08:28:55.660Z,99704.69
2022-10-17T08:29:58.690Z,99701.63
2022-10-17T08:31:09.139Z,99697.75
2022-10-17T08:32:13.107Z,99700.09
2022-10-17T08:33:16.140Z,99698.81
2022-10-17T08:34:20.447Z,99702.00
2022-10-17T08:35:24.051Z,99703.53
2022-10-17T08:36:29.367Z,99708.53
2022-10-17T08:37:32.829Z,99698.38
2022-10-17T08:38:41.432Z,99706.84
2022-10-17T08:39:46.279Z,99710.72
2022-10-17T08:40:50.843Z,99699.88
2022-10-17T08:42:05.338Z,99706.38
2022-10-17T08:43:18.920Z,99708.56
2022-10-17T08:44:35.242Z,99711.59
2022-10-17T08:45:42.190Z,99713.78
2022-10-17T08:46:49.828Z,99706.25
2022-10-17T08:47:55.440Z,99707.78
2022-10-17T08:49:02.200Z,99705.53
2022-10-17T08:50:08.685Z,99695.50
2022-10-17T08:51:16.759Z,99698.53
2022-10-17T08:52:28.133Z,99708.50
2022-10-17T08:53:36.479Z,99703.28
2022-10-17T08:54:43.328Z,99697.56
2022-10-17T08:55:49.067Z,99701.41
2022-10-17T08:56:55.157Z,99704.28
2022-10-17T08:57:59.404Z,99703.53
2022-10-17T08:59:04.336Z,99706.41
2022-10-17T09:00:15.870Z,99709.16
2022-10-17T09:01:34.970Z,99716.47
2022-10-17T09:02:51.866Z,99709.72
2022-10-17T09:04:11.623Z,99699.38
2022-10-17T09:05:43.043Z,99706.09
2022-10-17T09:06:51.407Z,99696.41
2022-10-17T09:08:01.402Z,99699.25
2022-10-17T09:09:16.914Z,99703.28
2022-10-17T09:10:27.396Z,99704.00
2022-10-17T09:11:42.111Z,99703.59
2022-10-17T09:12:50.987Z,99692.59
2022-10-17T09:14:03.790Z,99700.13
2022-10-17T09:15:31.185Z,99699.47
2022-10-17T09:16:46.350Z,99702.84
2022-10-17T09:17:53.523Z,99697.41
2022-10-17T09:19:01.857Z,99702.03
2022-10-17T09:20:11.537Z,99703.38
2022-10-17T09:21:20.441Z,99706.38
2022-10-17T09:22:26.660Z,99705.25
2022-10-17T09:23:33.425Z,99706.06
2022-10-17T09:24:41.128Z,99696.94
2022-10-17T09:25:47.278Z,99697.63
2022-10-17T09:26:52.722Z,99703.75
2022-10-17T09:28:03.741Z,99697.28
2022-10-17T09:29:16.346Z,99695.47
2022-10-17T09:30:46.382Z,99702.28
2022-10-17T09:31:54.288Z,99695.81
2022-10-17T09:32:59.952Z,99695.53
2022-10-17T09:34:04.751Z,99698.69
2022-10-17T09:35:12.867Z,99701.81
2022-10-17T09:36:19.045Z,99696.38
2022-10-17T09:37:31.590Z,99702.31
2022-10-17T09:38:40.905Z,99698.50
2022-10-17T09:39:45.559Z,99700.00
2022-10-17T09:40:56.890Z,99697.88
2022-10-17T09:42:02.303Z,99694.88
2022-10-17T09:43:08.149Z,99705.97
2022-10-17T09:44:20.900Z,99695.03
2022-10-17T09:45:26.246Z,99700.00
2022-10-17T09:46:35.870Z,99700.50
2022-10-17T09:47:42.670Z,99709.13
2022-10-17T09:48:52.568Z,99706.28
2022-10-17T09:49:57.795Z,99701.50
2022-10-17T09:51:15.145Z,99700.81
2022-10-17T09:52:30.567Z,99708.78
2022-10-17T09:53:38.408Z,99710.75
2022-10-17T09:54:44.977Z,99710.91
2022-10-17T09:55:51.165Z,99703.28
2022-10-17T09:57:02.995Z,99710.41
2022-10-17T09:58:08.547Z,99702.13
2022-10-17T09:59:33.820Z,99705.09
2022-10-17T10:00:39.761Z,99707.44
2022-10-17T10:01:42.778Z,99703.25
2022-10-17T10:02:46.731Z,99704.59
2022-10-17T10:04:10.778Z,99701.44
2022-10-17T10:05:16.717Z,99705.56
2022-10-17T10:06:22.015Z,99699.09
2022-10-17T10:07:29.114Z,99707.69
2022-10-17T10:08:35.749Z,99708.38
2022-10-17T10:09:40.254Z,99702.22
2022-10-17T10:10:44.900Z,99705.53
2022-10-17T10:11:50.235Z,99700.88
2022-10-17T10:13:06.301Z,99705.19
2022-10-17T10:14:14.211Z,99706.69
2022-10-17T10:15:34.012Z,99705.50
2022-10-17T10:16:43.488Z,99705.34
2022-10-17T10:17:47.449Z,99701.50
2022-10-17T10:18:52.213Z,99711.94
2022-10-17T10:19:56.206Z,99704.47
2022-10-17T10:21:06.299Z,99703.13
2022-10-17T10:22:18.290Z,99712.41
2022-10-17T10:23:22.428Z,99706.91
2022-10-17T10:24:30.836Z,99697.94
2022-10-17T10:25:35.592Z,99701.91
2022-10-17T10:26:42.036Z,99706.06
2022-10-17T10:27:45.781Z,99708.16
2022-10-17T10:28:57.933Z,99701.69
2022-10-17T10:30:02.098Z,99700.88
2022-10-17T10:31:07.208Z,99698.03
2022-10-17T10:32:20.361Z,99698.84
2022-10-17T10:33:26.046Z,99695.19
2022-10-17T10:34:32.928Z,99704.84
2022-10-17T10:35:36.944Z,99693.03
2022-10-17T10:36:49.853Z,99690.19
2022-10-17T10:37:55.934Z,99687.22
2022-10-17T10:39:02.449Z,99687.03
2022-10-17T10:40:18.281Z,99688.53
2022-10-17T10:41:21.832Z,99685.50
2022-10-17T10:42:28.161Z,99685.16
2022-10-17T10:43:35.298Z,99690.78
2022-10-17T10:44:42.290Z,99690.44
2022-10-17T10:45:49.136Z,99685.59
2022-10-17T10:47:11.337Z,99681.09
2022-10-17T10:48:22.082Z,99680.94
2022-10-17T10:49:31.719Z,99687.53
2022-10-17T10:50:44.385Z,99683.72
2022-10-17T10:51:48.700Z,99683.19
2022-10-17T10:52:58.176Z,99686.13
2022-10-17T10:54:06.812Z,99684.59
2022-10-17T10:55:21.644Z,99685.50
2022-10-17T10:56:29.921Z,99678.00
2022-10-17T10:57:35.979Z,99684.78
2022-10-17T10:58:47.800Z,99681.78
2022-10-17T10:59:58.559Z,99686.75
2022-10-17T11:01:06.588Z,99687.88
2022-10-17T11:02:14.680Z,99686.66
2022-10-17T11:03:23.248Z,99685.50
2022-10-17T11:04:31.068Z,99684.34
2022-10-17T11:05:42.741Z,99680.50
2022-10-17T11:06:47.137Z,99682.97
2022-10-17T11:07:56.250Z,99679.97
2022-10-17T11:09:11.136Z,99682.25
2022-10-17T11:10:17.608Z,99679.38
2022-10-17T11:11:27.387Z,99679.88
2022-10-17T11:12:35.028Z,99678.03
2022-10-17T11:13:42.649Z,99678.84
2022-10-17T11:14:49.021Z,99685.00
2022-10-17T11:15:55.164Z,99684.66
2022-10-17T11:17:07.550Z,99681.06
2022-10-17T11:18:15.163Z,99686.66
2022-10-17T11:19:26.335Z,99677.31
2022-10-17T11:20:36.158Z,99681.47
2022-10-17T11:21:45.888Z,99677.59
2022-10-17T11:22:51.106Z,99681.53
2022-10-17T11:24:00.179Z,99673.19
2022-10-17T11:25:06.520Z,99669.31
2022-10-17T11:26:14.816Z,99675.31
2022-10-17T11:27:17.863Z,99671.25
2022-10-17T11:28:23.173Z,99665.38
2022-10-17T11:29:31.250Z,99676.28
2022-10-17T11:31:54.322Z,99675.13
2022-10-17T11:33:01.655Z,99672.72
2022-10-17T11:34:07.598Z,99663.56
2022-10-17T11:35:26.155Z,99668.53
2022-10-17T11:36:32.117Z,99668.94
2022-10-17T11:37:41.039Z,99663.88
2022-10-17T11:38:49.729Z,99671.97
2022-10-17T11:39:56.702Z,99673.28
2022-10-17T11:41:00.507Z,99669.38
2022-10-17T11:42:08.407Z,99666.78
2022-10-17T11:43:15.398Z,99661.56
2022-10-17T11:44:23.349Z,99666.56
2022-10-17T11:45:29.456Z,99671.78
2022-10-17T11:46:37.059Z,99677.38
2022-10-17T11:47:45.382Z,99666.91
2022-10-17T11:48:59.697Z,99674.25
2022-10-17T11:53:07.938Z,99671.72
2022-10-17T11:54:15.509Z,99665.94
2022-10-17T11:55:22.948Z,99672.28
2022-10-17T11:56:36.165Z,99667.31
2022-10-17T11:58:00.258Z,99668.69
2022-10-17T11:59:18.495Z,99666.88
2022-10-17T12:00:28.721Z,99668.91
2022-10-17T12:01:39.097Z,99668.91
2022-10-17T12:02:48.130Z,99670.53
2022-10-17T12:04:06.817Z,99668.13
2022-10-17T12:05:20.199Z,99666.75
2022-10-17T12:06:39.120Z,99662.50
2022-10-17T12:07:48.623Z,99660.28
2022-10-17T12:08:58.446Z,99657.06
2022-10-17T12:10:09.001Z,99662.00
2022-10-17T12:11:16.346Z,99659.78
2022-10-17T12:12:28.610Z,99661.69
2022-10-17T12:13:55.364Z,99657.44
2022-10-17T12:15:29.560Z,99658.72
2022-10-17T12:16:43.613Z,99655.69
2022-10-17T12:17:48.070Z,99654.28
2022-10-17T12:19:12.737Z,99660.50
2022-10-17T12:20:29.132Z,99653.94
2022-10-17T12:21:55.654Z,99650.69
2022-10-17T12:23:04.754Z,99656.69
2022-10-17T12:24:28.897Z,99656.09
2022-10-17T12:25:34.423Z,99654.50
2022-10-17T12:26:37.359Z,99658.81
2022-10-17T12:27:43.958Z,99653.28
2022-10-17T12:28:48.562Z,99653.28
2022-10-17T12:29:59.647Z,99653.72
2022-10-17T12:31:07.358Z,99660.50
2022-10-17T12:32:13.325Z,99656.84
2022-10-17T12:33:22.647Z,99649.00
2022-10-17T12:34:25.669Z,99654.53
2022-10-17T12:35:30.770Z,99655.16
2022-10-17T12:36:38.468Z,99651.31
2022-10-17T12:38:04.618Z,99649.63
2022-10-17T12:39:41.570Z,99649.91
2022-10-17T12:41:11.547Z,99646.97
2022-10-17T12:42:30.539Z,99639.06
2022-10-17T12:44:55.396Z,99639.59
2022-10-17T12:45:59.095Z,99641.69
2022-10-17T12:47:31.029Z,99639.81
2022-10-17T12:49:03.016Z,99640.81
2022-10-17T12:50:52.960Z,99639.31
2022-10-17T12:52:24.085Z,99642.75
2022-10-17T12:53:35.851Z,99638.84
2022-10-17T12:54:47.653Z,99642.53
2022-10-17T12:56:03.948Z,99639.88
2022-10-17T12:57:14.685Z,99644.00
2022-10-17T12:58:18.687Z,99649.53
2022-10-17T12:59:25.497Z,99643.09
2022-10-17T13:00:35.303Z,99637.72
2022-10-17T13:01:39.639Z,99640.38
2022-10-17T13:02:43.941Z,99636.44
2022-10-17T13:03:48.519Z,99633.47
2022-10-17T13:04:55.109Z,99643.56
2022-10-17T13:06:02.084Z,99634.28
2022-10-17T13:07:05.053Z,99640.06
2022-10-17T13:08:10.599Z,99639.25
2022-10-17T13:09:22.377Z,99637.13
2022-10-17T13:10:28.419Z,99638.09
2022-10-17T13:11:34.099Z,99633.22
2022-10-17T13:12:41.300Z,99636.66
2022-10-17T13:13:47.954Z,99637.16
2022-10-17T13:14:52.058Z,99644.25
2022-10-17T13:15:56.627Z,99639.28
2022-10-17T13:17:00.518Z,99643.38
2022-10-17T13:18:04.476Z,99645.47
2022-10-17T13:19:14.788Z,99640.38
2022-10-17T13:20:27.523Z,99643.13
2022-10-17T13:21:34.467Z,99639.28
2022-10-17T13:22:45.419Z,99641.97
2022-10-17T13:23:53.219Z,99633.69
2022-10-17T13:25:08.738Z,99645.09
2022-10-17T13:26:20.298Z,99636.28
2022-10-17T13:27:26.871Z,99641.03
2022-10-17T13:28:33.894Z,99643.97
2022-10-17T13:29:45.846Z,99642.25
2022-10-17T13:30:49.986Z,99639.19
2022-10-17T13:31:54.793Z,99636.28
2022-10-17T13:32:59.030Z,99633.34
2022-10-17T13:34:05.011Z,99636.06
2022-10-17T13:35:10.562Z,99632.19
2022-10-17T13:36:19.027Z,99632.59
2022-10-17T13:37:23.094Z,99626.66
2022-10-17T13:38:30.472Z,99630.53